Time;durP1;ratioP1;P1;durP2;ratioP2;P2;SDS_P1;SDS_P2;PMS_P1;PMS_P2;Temp;Humidity;BMP_temperature;BMP_pressure;BME280_temperature;BME280_humidity;BME280_pressure;Samples;Min_cycle;Max_cycle;Signal;HPM_P1;HPM_P2
2023/01/30 00:01:40;;;;;;;41.95;18.10;;;;;;;-1.36;100.00;99806.25;5051745;28;20090;-58
2023/01/30 00:04:06;;;;;;;51.40;21.08;;;;;;;-1.31;100.00;99809.25;5054006;28;20103;-58
2023/01/30 00:06:31;;;;;;;40.58;18.90;;;;;;;-1.33;100.00;99826.16;5043132;28;20036;-58
2023/01/30 00:08:56;;;;;;;46.92;20.70;;;;;;;-1.33;100.00;99834.88;5035737;28;20033;-58
2023/01/30 00:11:22;;;;;;;44.15;20.27;;;;;;;-1.30;100.00;99817.97;5049532;28;20051;-58
2023/01/30 00:13:48;;;;;;;40.20;17.35;;;;;;;-1.28;100.00;99802.84;5047313;28;20429;-58
2023/01/30 00:16:13;;;;;;;41.70;19.38;;;;;;;-1.22;100.00;99797.00;5053335;28;20464;-59
2023/01/30 00:18:39;;;;;;;47.28;20.92;;;;;;;-1.27;100.00;99799.28;5046563;28;20487;-58
2023/01/30 00:21:06;;;;;;;43.08;19.17;;;;;;;-1.25;100.00;99786.78;5045578;28;20547;-58
2023/01/30 00:23:32;;;;;;;47.70;21.67;;;;;;;-1.25;100.00;99797.28;5043708;28;20106;-58
2023/01/30 00:25:57;;;;;;;44.55;20.40;;;;;;;-1.16;100.00;99801.66;5038702;28;20064;-58
2023/01/30 00:28:23;;;;;;;46.28;21.73;;;;;;;-1.23;100.00;99816.38;5039054;28;20025;-58
2023/01/30 00:30:49;;;;;;;44.47;20.23;;;;;;;-1.20;100.00;99820.50;5058870;28;20048;-58
2023/01/30 00:33:15;;;;;;;44.95;20.35;;;;;;;-1.12;100.00;99813.53;5043208;28;20034;-58
2023/01/30 00:35:44;;;;;;;47.17;20.83;;;;;;;-1.09;100.00;99794.78;5045708;28;20451;-57
2023/01/30 00:38:09;;;;;;;38.63;18.98;;;;;;;-1.02;100.00;99786.28;5041723;28;20040;-59
2023/01/30 00:40:35;;;;;;;43.63;19.02;;;;;;;-1.02;100.00;99791.53;5043035;28;20029;-59
2023/01/30 00:48:28;;;;;;;37.83;15.43;;;;;;;-0.90;100.00;99779.78;5045978;28;20055;-59
2023/01/30 00:50:54;;;;;;;42.28;18.25;;;;;;;-0.91;100.00;99772.88;5047957;28;20659;-59
2023/01/30 00:53:19;;;;;;;45.42;18.38;;;;;;;-0.92;100.00;99747.56;5047672;28;20032;-59
2023/01/30 00:55:44;;;;;;;39.85;18.30;;;;;;;-0.87;100.00;99763.72;5047764;28;20058;-59
2023/01/30 00:58:11;;;;;;;38.92;16.77;;;;;;;-0.82;100.00;99756.16;5042564;28;20381;-59
2023/01/30 01:00:36;;;;;;;44.42;18.98;;;;;;;-0.88;100.00;99747.06;5058841;28;20407;-59
2023/01/30 01:03:02;;;;;;;43.10;18.83;;;;;;;-0.87;100.00;99755.81;5031870;28;20029;-59
2023/01/30 01:05:27;;;;;;;36.35;16.17;;;;;;;-0.82;100.00;99743.00;5041636;28;20387;-59
2023/01/30 01:07:53;;;;;;;39.47;17.98;;;;;;;-0.78;100.00;99749.59;5043437;28;20116;-58
2023/01/30 01:10:19;;;;;;;40.95;19.30;;;;;;;-0.77;100.00;99742.53;5042203;28;20033;-58
2023/01/30 01:12:44;;;;;;;40.47;17.70;;;;;;;-0.72;100.00;99737.63;5041224;28;20399;-59
2023/01/30 01:15:11;;;;;;;38.92;17.75;;;;;;;-0.72;100.00;99733.19;5038770;28;20033;-58
2023/01/30 01:17:37;;;;;;;34.95;16.13;;;;;;;-0.75;100.00;99746.66;5043322;28;20065;-58
2023/01/30 01:20:03;;;;;;;38.28;17.70;;;;;;;-0.74;100.00;99732.50;5048521;28;20439;-58
2023/01/30 01:22:29;;;;;;;22.58;11.63;;;;;;;-0.71;100.00;99732.19;5043669;28;20088;-58
2023/01/30 01:24:54;;;;;;;37.03;15.95;;;;;;;-0.68;100.00;99733.69;5041460;28;20126;-58
2023/01/30 01:27:19;;;;;;;41.15;19.02;;;;;;;-0.72;100.00;99733.19;5040731;28;20031;-58
2023/01/30 01:29:45;;;;;;;33.90;16.55;;;;;;;-0.69;100.00;99739.94;5048790;28;20025;-58
2023/01/30 01:32:10;;;;;;;31.02;14.23;;;;;;;-0.67;100.00;99728.28;5044199;28;20551;-58
2023/01/30 01:34:36;;;;;;;39.13;17.52;;;;;;;-0.69;100.00;99717.06;5038833;28;20037;-60
2023/01/30 01:37:02;;;;;;;41.05;17.45;;;;;;;-0.70;100.00;99731.22;5044897;28;20025;-60
2023/01/30 01:41:00;;;;;;;43.80;19.60;;;;;;;-0.68;100.00;99718.69;5037217;28;20316;-58
2023/01/30 01:42:12;;;;;;;30.92;14.45;;;;;;;-0.71;100.00;99705.88;5039113;28;20115;-58
2023/01/30 01:45:06;;;;;;;24.70;11.65;;;;;;;-0.70;100.00;99694.38;5049769;28;20021;-59
2023/01/30 01:47:32;;;;;;;47.67;19.65;;;;;;;-0.74;100.00;99695.66;5038492;28;20421;-60
2023/01/30 01:49:57;;;;;;;40.92;19.42;;;;;;;-0.69;100.00;99687.28;5059449;28;20033;-59
2023/01/30 01:52:23;;;;;;;29.27;15.32;;;;;;;-0.69;100.00;99693.38;5042530;28;20025;-59
2023/01/30 01:54:53;;;;;;;41.05;18.13;;;;;;;-0.56;100.00;99697.38;5031935;28;20043;-59
2023/01/30 01:57:20;;;;;;;;;;;;;;;-0.59;100.00;99713.50;5058397;28;20067;-58
2023/01/30 02:00:00;;;;;;;38.83;16.70;;;;;;;-0.52;100.00;99701.34;5039955;28;19982;-59
2023/01/30 02:02:25;;;;;;;39.42;17.17;;;;;;;-0.49;100.00;99696.56;5023805;28;20033;-58
2023/01/30 02:05:01;;;;;;;38.40;16.58;;;;;;;-0.52;100.00;99694.25;5048391;28;20037;-58
2023/01/30 02:07:46;;;;;;;41.03;19.10;;;;;;;-0.47;100.00;99691.16;5039238;28;20460;-58
2023/01/30 02:10:14;;;;;;;38.08;15.13;;;;;;;-0.41;100.00;99690.50;5035585;28;20033;-58
2023/01/30 02:12:40;;;;;;;45.75;19.83;;;;;;;-0.47;100.00;99688.53;5018722;28;20052;-58
2023/01/30 02:15:06;;;;;;;42.90;19.40;;;;;;;-0.41;100.00;99685.25;5041109;28;20467;-58
2023/01/30 02:17:31;;;;;;;45.00;17.77;;;;;;;-0.29;100.00;99680.50;5039373;28;20069;-58
2023/01/30 02:20:10;;;;;;;42.85;18.42;;;;;;;-0.37;100.00;99691.03;5042934;28;20029;-58
2023/01/30 02:23:06;;;;;;;49.60;19.52;;;;;;;-0.47;100.00;99685.91;5023166;28;20029;-59
2023/01/30 02:25:55;;;;;;;40.42;16.65;;;;;;;-0.40;100.00;99704.50;5043415;28;20031;-58
2023/01/30 02:28:29;;;;;;;45.42;19.20;;;;;;;-0.31;100.00;99703.53;5023867;28;20048;-58
2023/01/30 02:31:13;;;;;;;39.38;17.20;;;;;;;-0.36;100.00;99693.47;5044332;28;20445;-58
2023/01/30 02:33:40;;;;;;;51.63;19.65;;;;;;;-0.40;100.00;99684.28;5037029;28;20510;-58
2023/01/30 02:36:05;;;;;;;39.45;17.13;;;;;;;-0.36;100.00;99682.94;5069139;28;20475;-58
2023/01/30 02:38:30;;;;;;;47.88;20.15;;;;;;;-0.38;100.00;99684.91;5047383;28;20024;-58
2023/01/30 02:41:10;;;;;;;44.58;18.58;;;;;;;-0.34;100.00;99686.25;5042925;28;20036;-58
2023/01/30 02:43:44;;;;;;;29.17;14.05;;;;;;;-0.32;100.00;99688.72;5032589;28;20041;-58
2023/01/30 02:46:45;;;;;;;42.80;18.55;;;;;;;-0.29;100.00;99694.50;5041211;28;20037;-58
2023/01/30 02:49:18;;;;;;;35.92;14.85;;;;;;;-0.31;100.00;99696.47;5038512;28;20033;-58
2023/01/30 02:51:45;;;;;;;50.78;20.27;;;;;;;-0.30;100.00;99684.94;5036905;28;20029;-58
2023/01/30 02:54:11;;;;;;;45.08;21.45;;;;;;;-0.26;100.00;99683.63;5055917;28;20120;-58
2023/01/30 02:56:48;;;;;;;39.20;17.58;;;;;;;-0.24;100.00;99663.22;5047811;28;20020;-58
2023/01/30 02:59:15;;;;;;;52.53;20.58;;;;;;;-0.23;100.00;99670.13;5043132;28;20109;-58
2023/01/30 03:02:04;;;;;;;48.72;20.27;;;;;;;-0.19;100.00;99661.91;5042152;28;20139;-58
2023/01/30 03:04:48;;;;;;;38.00;17.13;;;;;;;-0.26;100.00;99646.75;5035994;28;20033;-58
2023/01/30 03:07:19;;;;;;;52.08;20.25;;;;;;;-0.24;100.00;99613.16;5042970;28;20383;-58
2023/01/30 03:10:06;;;;;;;52.92;19.90;;;;;;;-0.25;100.00;99611.53;5046656;28;20052;-58
2023/01/30 03:12:41;;;;;;;56.85;22.58;;;;;;;-0.23;100.00;99620.06;5035862;28;20028;-58
2023/01/30 03:15:24;;;;;;;50.92;20.33;;;;;;;-0.19;100.00;99603.97;5040423;28;20017;-58
2023/01/30 03:17:49;;;;;;;45.40;19.63;;;;;;;-0.23;100.00;99609.53;5055589;28;20025;-58
2023/01/30 03:20:15;;;;;;;43.53;18.88;;;;;;;-0.18;100.00;99601.13;5045277;28;20122;-58
2023/01/30 03:22:41;;;;;;;39.35;16.88;;;;;;;-0.16;100.00;99595.72;5027618;28;20075;-58
2023/01/30 03:25:09;;;;;;;56.40;23.27;;;;;;;-0.17;100.00;99591.44;5039522;28;20029;-58
2023/01/30 03:27:34;;;;;;;52.30;22.08;;;;;;;-0.15;100.00;99587.66;5042680;28;20029;-58
2023/01/30 03:30:00;;;;;;;49.88;19.48;;;;;;;-0.14;100.00;99570.03;5038452;28;20076;-58
2023/01/30 03:32:25;;;;;;;51.95;22.15;;;;;;;-0.11;100.00;99574.97;5014402;28;20440;-57
2023/01/30 03:34:50;;;;;;;51.05;24.35;;;;;;;-0.10;100.00;99551.09;5043250;28;20028;-58
2023/01/30 03:37:16;;;;;;;50.35;18.50;;;;;;;-0.06;100.00;99562.13;5037616;28;20429;-58
2023/01/30 03:39:41;;;;;;;50.10;21.63;;;;;;;-0.09;100.00;99557.19;5038016;28;20024;-58
2023/01/30 03:42:07;;;;;;;55.63;23.65;;;;;;;-0.03;100.00;99564.41;5052626;28;20139;-58
2023/01/30 03:44:32;;;;;;;53.05;20.58;;;;;;;-0.04;100.00;99560.16;5041833;28;20502;-58
2023/01/30 03:46:57;;;;;;;64.30;23.30;;;;;;;-0.05;100.00;99558.47;5043415;28;20387;-58
2023/01/30 03:49:23;;;;;;;57.95;22.95;;;;;;;-0.02;100.00;99553.72;5039173;28;20032;-58
2023/01/30 03:51:48;;;;;;;59.47;21.55;;;;;;;0.03;100.00;99558.50;5050378;28;20126;-58
2023/01/30 03:54:14;;;;;;;64.45;24.13;;;;;;;0.04;100.00;99556.69;5038263;28;20029;-58
2023/01/30 03:56:39;;;;;;;59.47;20.92;;;;;;;-0.07;100.00;99539.41;5036645;28;20024;-58
2023/01/30 03:59:05;;;;;;;62.83;23.00;;;;;;;-0.03;100.00;99541.53;5045911;28;20026;-58
2023/01/30 04:01:30;;;;;;;61.22;22.92;;;;;;;-0.05;100.00;99526.88;5043278;28;20036;-57
2023/01/30 04:03:55;;;;;;;70.72;24.65;;;;;;;-0.06;100.00;99533.13;5033892;28;20029;-60
2023/01/30 04:06:21;;;;;;;63.97;23.27;;;;;;;-0.03;100.00;99519.63;5039565;28;20033;-59
2023/01/30 04:08:46;;;;;;;57.40;21.88;;;;;;;-0.04;100.00;99512.72;5040018;28;20054;-59
2023/01/30 04:11:12;;;;;;;70.72;26.27;;;;;;;-0.09;100.00;99504.50;5041748;28;20438;-59
2023/01/30 04:13:37;;;;;;;56.85;20.77;;;;;;;-0.11;100.00;99499.38;5039266;28;20060;-59
2023/01/30 04:16:20;;;;;;;73.05;25.40;;;;;;;-0.10;100.00;99492.28;5045229;28;20465;-58
2023/01/30 04:18:45;;;;;;;79.28;28.27;;;;;;;-0.14;100.00;99491.00;5039538;28;20025;-57
2023/01/30 04:21:10;;;;;;;72.55;24.50;;;;;;;-0.20;100.00;99496.91;5042661;28;20091;-57
2023/01/30 04:23:36;;;;;;;67.80;25.25;;;;;;;-0.15;100.00;99498.09;5044024;28;20379;-59
2023/01/30 04:26:01;;;;;;;75.43;24.60;;;;;;;-0.17;100.00;99492.16;5044445;28;20032;-59
2023/01/30 04:28:27;;;;;;;71.60;26.58;;;;;;;-0.20;100.00;99478.47;5040525;28;20103;-59
2023/01/30 04:30:52;;;;;;;93.70;27.48;;;;;;;-0.17;100.00;99467.63;5028853;28;20026;-57
2023/01/30 04:33:18;;;;;;;86.30;28.70;;;;;;;-0.22;100.00;99463.66;5037900;28;20029;-59
2023/01/30 04:35:52;;;;;;;87.60;28.02;;;;;;;-0.21;100.00;99480.28;5040989;28;20036;-59
2023/01/30 04:38:18;;;;;;;68.60;24.88;;;;;;;-0.14;100.00;99481.28;5040157;28;20026;-59
2023/01/30 04:40:47;;;;;;;80.40;26.90;;;;;;;-0.18;100.00;99481.75;5035131;28;20075;-59
2023/01/30 04:43:13;;;;;;;67.53;23.00;;;;;;;-0.16;100.00;99480.59;5045751;28;20137;-59
2023/01/30 04:45:42;;;;;;;80.53;26.25;;;;;;;-0.14;100.00;99469.91;5036514;28;20336;-59
2023/01/30 04:48:07;;;;;;;75.70;25.65;;;;;;;-0.12;100.00;99465.31;5039305;28;20117;-59
2023/01/30 04:50:33;;;;;;;86.03;27.23;;;;;;;-0.15;100.00;99462.97;5036852;28;20060;-59
2023/01/30 04:52:58;;;;;;;90.38;27.15;;;;;;;-0.05;100.00;99474.16;5037969;28;20025;-59
2023/01/30 04:55:23;;;;;;;72.75;24.55;;;;;;;0.03;100.00;99475.97;5051450;28;20036;-59
2023/01/30 04:57:49;;;;;;;74.75;24.73;;;;;;;0.09;100.00;99465.56;5041581;28;20451;-59
2023/01/30 05:00:15;;;;;;;77.82;26.35;;;;;;;0.18;100.00;99464.56;5043604;28;20487;-59
2023/01/30 05:02:40;;;;;;;56.35;20.40;;;;;;;0.23;100.00;99460.59;5052398;28;20434;-59
2023/01/30 05:05:06;;;;;;;60.50;23.77;;;;;;;0.23;100.00;99465.88;5044517;28;20036;-59
2023/01/30 05:07:31;;;;;;;74.55;24.95;;;;;;;0.20;100.00;99469.66;5042397;28;21790;-59
2023/01/30 05:09:56;;;;;;;65.70;20.83;;;;;;;0.25;100.00;99459.44;5044387;28;20524;-59
2023/01/30 05:12:22;;;;;;;53.63;20.58;;;;;;;0.27;100.00;99452.16;5043413;28;20591;-59
2023/01/30 05:14:47;;;;;;;59.08;24.05;;;;;;;0.26;100.00;99452.34;5045200;28;20079;-59
2023/01/30 05:17:12;;;;;;;62.92;21.10;;;;;;;0.26;100.00;99471.63;5041281;28;20033;-59
2023/01/30 05:19:38;;;;;;;60.35;23.15;;;;;;;0.28;100.00;99464.38;5044357;28;20078;-59
2023/01/30 05:22:03;;;;;;;50.45;18.65;;;;;;;0.29;100.00;99455.47;5040901;28;20044;-59
2023/01/30 05:24:29;;;;;;;64.93;22.50;;;;;;;0.24;100.00;99441.16;5037298;28;20025;-60
2023/01/30 05:26:54;;;;;;;56.80;19.55;;;;;;;0.28;100.00;99440.66;5046052;28;20038;-60
2023/01/30 05:29:20;;;;;;;56.58;19.20;;;;;;;0.26;100.00;99426.00;5042180;28;20033;-59
2023/01/30 05:31:45;;;;;;;55.08;19.20;;;;;;;0.26;100.00;99424.16;5044672;28;20033;-59
2023/01/30 05:34:11;;;;;;;53.17;19.88;;;;;;;0.28;100.00;99416.09;5051089;28;20359;-59
2023/01/30 05:36:36;;;;;;;58.13;20.95;;;;;;;0.26;100.00;99411.00;5038112;28;20459;-59
2023/01/30 05:39:01;;;;;;;63.47;19.08;;;;;;;0.30;100.00;99399.13;5044263;28;20033;-59
2023/01/30 05:41:27;;;;;;;56.15;19.27;;;;;;;0.26;100.00;99391.72;5035401;28;20025;-59
2023/01/30 05:43:52;;;;;;;58.80;19.55;;;;;;;0.25;100.00;99395.31;5037737;28;20056;-58
2023/01/30 05:46:18;;;;;;;51.83;18.98;;;;;;;0.33;100.00;99397.94;5043853;28;20083;-59
2023/01/30 05:48:43;;;;;;;46.65;16.98;;;;;;;0.32;100.00;99391.00;5039892;28;20106;-58
2023/01/30 05:51:19;;;;;;;54.33;19.10;;;;;;;0.35;100.00;99395.94;5038032;28;20040;-57
2023/01/30 05:53:45;;;;;;;50.42;17.90;;;;;;;0.37;100.00;99394.78;5074521;28;20086;-58
2023/01/30 05:56:10;;;;;;;54.88;19.63;;;;;;;0.41;100.00;99384.72;5041136;28;20484;-58
2023/01/30 05:58:36;;;;;;;47.75;16.90;;;;;;;0.47;100.00;99405.09;5039382;28;20230;-60
2023/01/30 06:01:02;;;;;;;49.60;17.95;;;;;;;0.46;100.00;99402.66;5039721;28;20032;-59
2023/01/30 06:03:28;;;;;;;45.35;17.55;;;;;;;0.52;100.00;99401.97;5042445;28;20047;-59
2023/01/30 06:05:53;;;;;;;46.90;16.33;;;;;;;0.54;100.00;99390.25;5047075;28;20356;-60
2023/01/30 06:08:18;;;;;;;56.95;19.38;;;;;;;0.54;100.00;99416.63;5053703;28;20040;-58
2023/01/30 06:10:44;;;;;;;39.88;14.60;;;;;;;0.59;100.00;99418.75;5039363;28;20098;-60
2023/01/30 06:13:10;;;;;;;46.88;16.27;;;;;;;0.59;100.00;99424.00;5050873;28;20537;-57
2023/01/30 06:15:35;;;;;;;45.30;15.95;;;;;;;0.59;100.00;99424.00;5039029;28;20105;-58
2023/01/30 06:18:01;;;;;;;39.97;15.13;;;;;;;0.63;100.00;99412.94;5069160;28;20040;-58
2023/01/30 06:20:26;;;;;;;45.55;16.00;;;;;;;0.62;100.00;99408.69;5041049;28;20653;-60
2023/01/30 06:22:52;;;;;;;43.30;14.98;;;;;;;0.66;100.00;99405.69;5045539;28;20394;-58
2023/01/30 06:25:17;;;;;;;38.55;14.43;;;;;;;0.66;100.00;99413.59;5074345;28;20040;-59
2023/01/30 06:27:44;;;;;;;44.47;16.25;;;;;;;0.65;100.00;99412.78;5039507;28;20032;-58
2023/01/30 06:30:10;;;;;;;41.90;16.60;;;;;;;0.74;100.00;99418.81;5038885;28;20399;-58
2023/01/30 06:32:36;;;;;;;43.50;14.90;;;;;;;0.80;100.00;99423.38;5035503;28;20029;-58
2023/01/30 06:35:01;;;;;;;42.83;16.83;;;;;;;0.75;100.00;99439.75;5038721;28;20032;-58
2023/01/30 06:37:27;;;;;;;46.97;17.10;;;;;;;0.75;100.00;99436.28;5041112;28;20061;-58
2023/01/30 06:39:52;;;;;;;50.55;17.13;;;;;;;0.73;100.00;99425.09;5035117;28;20071;-59
2023/01/30 06:42:17;;;;;;;52.30;24.23;;;;;;;0.69;100.00;99423.78;5045541;28;20588;-60
2023/01/30 06:44:43;;;;;;;48.55;17.08;;;;;;;0.62;100.00;99416.59;5030946;28;20033;-59
2023/01/30 06:47:08;;;;;;;48.60;17.80;;;;;;;0.69;100.00;99434.34;5036365;28;20032;-60
2023/01/30 06:49:34;;;;;;;47.40;15.18;;;;;;;0.63;100.00;99441.97;5045853;28;20360;-57
2023/01/30 06:51:59;;;;;;;40.05;14.82;;;;;;;0.72;100.00;99444.56;5040483;28;20035;-58
2023/01/30 06:54:24;;;;;;;41.22;16.00;;;;;;;0.70;100.00;99438.63;5042908;28;20045;-57
2023/01/30 06:56:50;;;;;;;43.05;16.23;;;;;;;0.75;100.00;99444.19;5049391;28;20025;-58
2023/01/30 06:59:15;;;;;;;43.22;15.82;;;;;;;0.80;100.00;99462.97;5037775;28;20021;-58
2023/01/30 07:01:41;;;;;;;45.85;17.45;;;;;;;0.86;100.00;99467.56;5040339;28;20131;-58
2023/01/30 07:04:06;;;;;;;50.45;16.10;;;;;;;0.88;100.00;99464.75;5046131;28;20450;-60
2023/01/30 07:06:32;;;;;;;36.42;13.82;;;;;;;0.97;100.00;99448.69;5044698;28;20028;-58
2023/01/30 07:08:57;;;;;;;23.60;10.18;;;;;;;0.98;100.00;99460.09;5067300;28;20050;-58
2023/01/30 07:11:26;;;;;;;29.70;11.73;;;;;;;1.13;100.00;99460.16;5040968;28;20471;-58
2023/01/30 07:13:51;;;;;;;31.75;13.82;;;;;;;1.11;100.00;99455.03;5045466;28;20037;-58
2023/01/30 07:16:16;;;;;;;34.08;13.70;;;;;;;1.14;100.00;99453.84;5044355;28;20427;-58
2023/01/30 07:18:42;;;;;;;22.02;11.30;;;;;;;1.25;100.00;99456.09;5042772;28;20036;-58
2023/01/30 07:21:07;;;;;;;17.88;7.38;;;;;;;1.20;100.00;99451.34;5043892;28;20044;-58
2023/01/30 07:23:33;;;;;;;21.90;9.43;;;;;;;1.25;100.00;99450.81;5035351;28;20569;-58
2023/01/30 07:25:58;;;;;;;21.58;9.05;;;;;;;1.28;100.00;99471.59;5043659;28;20029;-58
2023/01/30 07:28:24;;;;;;;19.33;8.48;;;;;;;1.25;100.00;99474.59;5037814;28;20127;-58
2023/01/30 07:30:52;;;;;;;64.13;27.45;;;;;;;1.26;100.00;99473.56;5036157;28;20025;-58
2023/01/30 07:33:18;;;;;;;43.88;20.65;;;;;;;1.28;100.00;99476.88;5042918;28;20085;-58
2023/01/30 07:35:43;;;;;;;87.93;40.05;;;;;;;1.22;100.00;99477.56;5037207;28;20032;-58
2023/01/30 07:38:09;;;;;;;53.03;21.77;;;;;;;1.19;100.00;99473.44;5041106;28;20028;-58
2023/01/30 07:40:34;;;;;;;62.78;26.95;;;;;;;1.17;100.00;99486.00;5041265;28;20029;-59
2023/01/30 07:43:01;;;;;;;34.85;15.05;;;;;;;1.21;100.00;99476.75;5037597;28;20069;-59
2023/01/30 07:45:37;;;;;;;49.88;25.23;;;;;;;1.13;100.00;99479.44;5037779;28;20075;-60
2023/01/30 07:48:02;;;;;;;30.67;14.57;;;;;;;1.14;100.00;99482.91;5040739;28;20029;-59
2023/01/30 07:50:28;;;;;;;20.00;7.50;;;;;;;1.15;100.00;99476.63;5025426;28;20547;-59
2023/01/30 07:52:54;;;;;;;19.00;7.45;;;;;;;1.08;100.00;99472.03;5041591;28;20029;-58
2023/01/30 07:55:19;;;;;;;20.95;9.23;;;;;;;1.14;100.00;99464.41;5041707;28;20090;-58
2023/01/30 07:57:45;;;;;;;19.60;7.72;;;;;;;1.18;100.00;99449.88;5043646;28;20067;-58
2023/01/30 08:00:11;;;;;;;18.83;8.50;;;;;;;1.14;100.00;99453.84;5042674;28;20040;-58
2023/01/30 08:02:37;;;;;;;14.23;6.68;;;;;;;1.14;100.00;99459.13;5046009;28;20036;-58
2023/01/30 08:05:02;;;;;;;13.30;6.05;;;;;;;1.07;100.00;99486.25;5046264;28;20033;-58
2023/01/30 08:07:28;;;;;;;17.77;8.10;;;;;;;1.15;100.00;99476.63;5043334;28;20025;-58
2023/01/30 08:09:53;;;;;;;28.42;11.10;;;;;;;1.14;100.00;99474.97;5040175;28;20025;-58
2023/01/30 08:12:18;;;;;;;20.23;9.23;;;;;;;1.13;100.00;99486.56;5045147;28;20394;-58
2023/01/30 08:14:44;;;;;;;30.27;9.88;;;;;;;1.17;100.00;99477.25;5053763;28;20032;-59
2023/01/30 08:17:09;;;;;;;17.63;7.53;;;;;;;1.13;100.00;99476.00;5041358;28;20044;-58
2023/01/30 08:19:34;;;;;;;11.98;6.07;;;;;;;1.18;100.00;99486.84;5048990;28;20036;-58
2023/01/30 08:22:00;;;;;;;15.00;5.35;;;;;;;1.16;100.00;99488.84;5039070;28;20033;-59
2023/01/30 08:24:25;;;;;;;12.68;5.93;;;;;;;1.16;100.00;99494.13;5037782;28;20383;-58
2023/01/30 08:26:51;;;;;;;15.18;6.32;;;;;;;1.16;100.00;99494.94;5039750;28;20087;-59
2023/01/30 08:29:16;;;;;;;17.92;7.82;;;;;;;1.24;100.00;99496.69;5038084;28;20421;-58
2023/01/30 08:31:42;;;;;;;17.88;5.20;;;;;;;1.25;100.00;99498.34;5041606;28;20021;-59
2023/01/30 08:34:07;;;;;;;11.45;5.13;;;;;;;1.34;100.00;99507.84;5040258;28;20049;-60
2023/01/30 08:36:33;;;;;;;10.68;4.68;;;;;;;1.38;100.00;99503.88;5036026;28;20038;-59
2023/01/30 08:38:58;;;;;;;13.50;5.43;;;;;;;1.34;100.00;99492.00;5044445;28;20198;-59
2023/01/30 08:41:26;;;;;;;11.70;5.03;;;;;;;1.36;100.00;99495.28;5044797;28;20492;-59
2023/01/30 08:43:51;;;;;;;9.35;4.85;;;;;;;1.41;100.00;99500.88;5043106;28;20323;-59
2023/01/30 08:46:16;;;;;;;11.48;4.82;;;;;;;1.46;100.00;99495.88;5051408;28;20039;-58
2023/01/30 08:48:45;;;;;;;15.25;8.57;;;;;;;1.56;100.00;99478.97;5037476;28;20029;-60
2023/01/30 08:51:10;;;;;;;11.70;6.15;;;;;;;1.61;100.00;99482.72;5042127;28;20115;-58
2023/01/30 08:53:36;;;;;;;12.55;5.03;;;;;;;1.49;100.00;99477.00;5042362;28;20029;-58
2023/01/30 08:56:01;;;;;;;14.88;8.65;;;;;;;1.61;100.00;99476.59;5043900;28;20040;-59
2023/01/30 08:58:27;;;;;;;15.95;8.52;;;;;;;1.67;100.00;99475.88;5042991;28;20037;-59
2023/01/30 09:00:52;;;;;;;12.77;6.32;;;;;;;1.62;100.00;99483.53;5046507;28;20570;-59
2023/01/30 09:03:18;;;;;;;16.08;7.25;;;;;;;1.64;100.00;99486.81;5041434;28;20028;-60
2023/01/30 09:05:43;;;;;;;23.70;8.70;;;;;;;1.67;100.00;99497.88;5046273;28;20025;-58
2023/01/30 09:08:08;;;;;;;12.60;7.10;;;;;;;1.58;100.00;99503.38;5042592;28;20787;-58
2023/01/30 09:10:34;;;;;;;10.38;5.57;;;;;;;1.58;100.00;99513.97;5043772;28;20063;-58
2023/01/30 09:12:59;;;;;;;14.90;7.28;;;;;;;1.63;100.00;99519.53;5038429;28;20148;-58
2023/01/30 09:15:25;;;;;;;11.60;5.97;;;;;;;1.75;100.00;99510.19;5037387;28;20510;-58
2023/01/30 09:17:51;;;;;;;13.13;6.45;;;;;;;1.80;100.00;99507.81;5044105;28;20025;-59
2023/01/30 09:20:19;;;;;;;12.85;5.78;;;;;;;1.91;100.00;99504.75;5041070;28;20039;-58
2023/01/30 09:22:44;;;;;;;14.20;6.57;;;;;;;1.89;100.00;99516.50;5042596;28;20034;-58
2023/01/30 09:25:10;;;;;;;8.30;4.05;;;;;;;1.94;100.00;99519.41;5046946;28;20064;-58
2023/01/30 09:27:35;;;;;;;9.18;4.78;;;;;;;1.96;100.00;99525.34;5047523;28;20673;-58
2023/01/30 09:30:02;;;;;;;10.07;5.03;;;;;;;2.08;100.00;99520.47;5038680;28;20025;-58
2023/01/30 09:32:27;;;;;;;7.55;3.90;;;;;;;2.03;100.00;99512.25;5043584;28;20021;-58
2023/01/30 09:34:52;;;;;;;8.32;4.07;;;;;;;2.18;100.00;99509.63;5047434;28;20028;-58
2023/01/30 09:37:19;;;;;;;7.82;3.78;;;;;;;2.26;100.00;99506.88;5035903;28;20032;-58
2023/01/30 09:39:45;;;;;;;6.15;3.47;;;;;;;2.24;100.00;99499.13;5037026;28;20477;-58
2023/01/30 09:42:25;;;;;;;9.32;4.10;;;;;;;2.36;100.00;99495.03;5044373;28;20028;-59
2023/01/30 09:44:51;;;;;;;;;;;;;;;2.61;100.00;99483.34;5040638;28;20041;-58
2023/01/30 09:47:41;;;;;;;50.20;16.08;;;;;;;2.86;100.00;99502.38;5036805;28;19935;-58
2023/01/30 09:50:12;;;;;;;9.98;5.00;;;;;;;2.74;100.00;99497.53;5038878;28;20581;-58
2023/01/30 09:53:02;;;;;;;11.18;4.55;;;;;;;2.73;100.00;99503.84;5043418;28;20300;-58
2023/01/30 09:55:28;;;;;;;23.10;10.10;;;;;;;2.65;100.00;99501.31;5037405;28;20036;-58
2023/01/30 09:57:54;;;;;;;12.80;5.50;;;;;;;2.73;100.00;99509.16;5039338;28;20048;-58
2023/01/30 10:00:42;;;;;;;10.60;4.65;;;;;;;2.62;100.00;99529.97;5020265;28;20036;-58
2023/01/30 10:03:07;;;;;;;14.15;5.85;;;;;;;2.56;100.00;99528.88;5025065;28;20667;-58
2023/01/30 10:05:45;;;;;;;30.55;19.08;;;;;;;2.54;100.00;99525.59;5038179;28;20206;-58
2023/01/30 10:08:34;;;;;;;17.83;10.40;;;;;;;2.59;100.00;99517.91;5026707;28;20065;-58
2023/01/30 10:11:20;;;;;;;9.15;3.90;;;;;;;2.54;100.00;99512.34;5042938;28;20032;-58
2023/01/30 10:14:10;;;;;;;6.75;3.97;;;;;;;2.62;100.00;99522.00;5040184;28;20123;-58
2023/01/30 10:16:35;;;;;;;9.00;4.07;;;;;;;2.62;100.00;99514.91;5042106;28;20080;-58
2023/01/30 10:19:19;;;;;;;8.73;4.88;;;;;;;2.83;100.00;99522.09;5042013;28;20079;-58
2023/01/30 10:22:05;;;;;;;65.15;23.38;;;;;;;3.04;100.00;99518.66;5033469;28;20433;-58
2023/01/30 10:24:42;;;;;;;8.80;4.18;;;;;;;3.07;100.00;99513.03;5017869;28;20492;-58
2023/01/30 10:27:11;;;;;;;14.25;6.00;;;;;;;3.12;100.00;99523.88;5042251;28;20033;-58
2023/01/30 10:29:37;;;;;;;19.52;8.07;;;;;;;2.98;100.00;99503.53;5041262;28;20476;-58
2023/01/30 10:32:06;;;;;;;7.60;3.83;;;;;;;2.89;100.00;99497.50;5033047;28;20527;-58
2023/01/30 10:34:37;;;;;;;7.03;3.37;;;;;;;3.06;100.00;99478.75;5047484;28;20467;-59
2023/01/30 10:37:27;;;;;;;5.85;3.03;;;;;;;4.25;100.00;99481.59;5044776;28;20060;-58
2023/01/30 10:40:18;;;;;;;42.30;17.30;;;;;;;5.17;95.02;99485.66;5036560;28;20121;-58
2023/01/30 10:42:43;;;;;;;5.50;3.00;;;;;;;5.09;91.31;99483.16;5039242;28;20040;-58
2023/01/30 10:45:16;;;;;;;39.30;17.02;;;;;;;5.48;90.58;99482.44;5030113;28;20449;-58
2023/01/30 10:47:57;;;;;;;12.18;6.05;;;;;;;4.93;92.83;99485.16;5037042;28;20025;-59
2023/01/30 10:50:25;;;;;;;;;;;;;;;4.58;94.31;99492.38;5019207;28;20292;-59
2023/01/30 10:53:05;;;;;;;10.88;5.15;;;;;;;5.09;92.59;99488.47;5039166;28;19917;-59
2023/01/30 10:55:39;;;;;;;12.57;7.75;;;;;;;5.64;90.70;99497.16;5018033;28;20025;-59
2023/01/30 10:58:25;;;;;;;15.10;9.18;;;;;;;6.17;87.10;99486.53;5040709;28;20033;-59
2023/01/30 11:01:02;;;;;;;9.23;3.85;;;;;;;5.98;87.59;99498.03;5033020;28;20020;-58
2023/01/30 11:03:41;;;;;;;15.70;7.72;;;;;;;6.17;86.84;99481.22;5039413;28;20098;-57
2023/01/30 11:06:10;;;;;;;20.42;8.07;;;;;;;6.66;84.78;99490.53;5024509;28;20025;-57
2023/01/30 11:08:35;;;;;;;34.08;12.27;;;;;;;6.60;84.17;99483.34;5035364;28;20037;-58
2023/01/30 11:11:18;;;;;;;39.83;18.35;;;;;;;7.05;82.76;99494.03;5033141;28;20130;-57
2023/01/30 11:13:45;;;;;;;18.52;9.70;;;;;;;7.52;81.79;99494.56;5054579;28;20086;-57
2023/01/30 11:16:11;;;;;;;23.45;11.45;;;;;;;7.65;80.76;99500.84;5039161;28;20038;-57
2023/01/30 11:18:47;;;;;;;27.85;13.15;;;;;;;7.54;80.79;99502.38;5038540;28;20029;-58
2023/01/30 11:21:23;;;;;;;36.47;20.42;;;;;;;7.58;81.05;99503.56;5042957;28;20129;-57
2023/01/30 11:23:50;;;;;;;23.23;7.95;;;;;;;7.66;79.26;99497.97;5022162;28;20044;-57
2023/01/30 11:26:32;;;;;;;35.90;15.82;;;;;;;7.91;78.06;99508.66;5066392;28;20315;-59
2023/01/30 11:28:58;;;;;;;30.45;15.95;;;;;;;7.91;76.56;99518.50;5041113;28;20036;-57
2023/01/30 11:31:27;;;;;;;19.35;7.32;;;;;;;7.66;77.80;99510.47;5036333;28;20021;-57